createdAt,value
2023-03-28T00:00:51.065Z,1.33
2023-03-28T00:03:22.580Z,1.44
2023-03-28T00:05:51.373Z,1.49
2023-03-28T00:08:18.362Z,1.49
2023-03-28T00:10:45.619Z,1.47
2023-03-28T00:13:14.037Z,1.50
2023-03-28T00:15:41.992Z,1.56
2023-03-28T00:18:12.265Z,1.53
2023-03-28T00:20:40.410Z,1.61
2023-03-28T00:23:08.111Z,1.62
2023-03-28T00:25:35.621Z,1.65
2023-03-28T00:28:02.540Z,1.65
2023-03-28T00:30:29.644Z,1.67
2023-03-28T00:32:57.538Z,1.68
2023-03-28T00:35:24.312Z,1.66
2023-03-28T00:37:53.260Z,1.69
2023-03-28T00:40:19.647Z,1.74
2023-03-28T00:42:46.542Z,1.74
2023-03-28T00:45:13.037Z,1.72
2023-03-28T00:47:46.159Z,1.76
2023-03-28T00:50:20.881Z,1.79
2023-03-28T00:52:50.954Z,1.76
2023-03-28T00:55:27.506Z,1.79
2023-03-28T00:57:54.455Z,1.79
2023-03-28T01:00:21.637Z,1.86
2023-03-28T01:02:52.333Z,1.82
2023-03-28T01:05:26.706Z,1.78
2023-03-28T01:07:59.287Z,1.84
2023-03-28T01:10:26.058Z,1.86
2023-03-28T01:12:54.412Z,1.83
2023-03-28T01:15:21.114Z,1.78
2023-03-28T01:17:48.127Z,1.87
2023-03-28T01:20:46.675Z,1.78
2023-03-28T01:23:31.161Z,1.73
2023-03-28T01:26:12.387Z,1.71
2023-03-28T01:29:10.590Z,1.74
2023-03-28T01:31:52.172Z,1.81
2023-03-28T01:34:27.602Z,1.80
2023-03-28T01:37:16.372Z,1.82
2023-03-28T01:39:59.215Z,1.85
2023-03-28T01:42:45.129Z,1.92
2023-03-28T01:45:36.977Z,1.87
2023-03-28T01:48:17.771Z,1.86
2023-03-28T01:51:13.556Z,1.93
2023-03-28T01:53:51.118Z,1.85
2023-03-28T01:56:30.663Z,1.82
2023-03-28T01:59:09.105Z,1.82
2023-03-28T02:02:01.676Z,1.86
2023-03-28T02:04:29.227Z,1.77
2023-03-28T02:06:56.633Z,1.71
2023-03-28T02:09:25.111Z,1.73
2023-03-28T02:11:56.444Z,1.76
2023-03-28T02:14:26.382Z,1.76
2023-03-28T02:16:57.484Z,1.72
2023-03-28T02:19:26.984Z,1.73
2023-03-28T02:22:12.288Z,1.72
2023-03-28T02:24:38.874Z,1.78
2023-03-28T02:27:08.439Z,1.84
2023-03-28T02:29:36.829Z,1.74
2023-03-28T02:32:03.619Z,1.79
2023-03-28T02:34:31.249Z,1.81
2023-03-28T02:37:11.880Z,1.81
2023-03-28T02:39:44.859Z,1.77
2023-03-28T02:42:29.938Z,1.63
2023-03-28T02:45:17.962Z,1.54
2023-03-28T02:48:05.880Z,1.49
2023-03-28T02:50:53.685Z,1.50
2023-03-28T02:53:27.241Z,1.47
2023-03-28T02:55:56.993Z,1.34
2023-03-28T02:58:30.462Z,1.35
2023-03-28T03:00:56.997Z,1.32
2023-03-28T03:03:23.748Z,1.30
2023-03-28T03:05:50.710Z,1.27
2023-03-28T03:08:17.348Z,1.23
2023-03-28T03:10:43.756Z,1.28
2023-03-28T03:13:10.663Z,1.27
2023-03-28T03:15:37.154Z,1.33
2023-03-28T03:18:04.520Z,1.34
2023-03-28T03:20:34.366Z,1.40
2023-03-28T03:23:01.737Z,1.35
2023-03-28T03:25:28.525Z,1.35
2023-03-28T03:27:55.027Z,1.42
2023-03-28T03:30:21.993Z,1.22
2023-03-28T03:32:48.496Z,1.05
2023-03-28T03:35:15.682Z,0.86
2023-03-28T03:37:42.190Z,0.89
2023-03-28T03:40:09.822Z,0.80
2023-03-28T03:42:37.061Z,0.78
2023-03-28T03:45:04.306Z,0.67
2023-03-28T03:47:31.068Z,0.68
2023-03-28T03:49:57.758Z,0.62
2023-03-28T03:52:24.316Z,0.58
2023-03-28T03:54:50.742Z,0.67
2023-03-28T03:57:17.594Z,0.64
2023-03-28T03:59:44.170Z,0.67
2023-03-28T04:02:12.060Z,0.67
2023-03-28T04:04:40.480Z,0.67
2023-03-28T04:07:07.223Z,0.71
2023-03-28T04:09:33.678Z,0.75
2023-03-28T04:12:00.263Z,0.74
2023-03-28T04:14:26.942Z,0.76
2023-03-28T04:16:53.840Z,0.76
2023-03-28T04:19:21.095Z,0.81
2023-03-28T04:21:48.888Z,0.78
2023-03-28T04:24:16.379Z,0.83
2023-03-28T04:26:49.719Z,0.85
2023-03-28T04:29:17.304Z,0.89
2023-03-28T04:31:50.001Z,0.87
2023-03-28T04:34:17.166Z,0.85
2023-03-28T04:36:43.845Z,0.89
2023-03-28T04:39:11.274Z,0.89
2023-03-28T04:41:38.908Z,0.93
2023-03-28T04:44:06.001Z,0.93
2023-03-28T04:46:32.510Z,0.96
2023-03-28T04:48:59.286Z,0.97
2023-03-28T04:51:28.467Z,0.99
2023-03-28T04:53:55.202Z,1.09
2023-03-28T04:56:22.202Z,1.15
2023-03-28T04:58:49.158Z,1.13
2023-03-28T05:01:16.092Z,1.15
2023-03-28T05:03:42.630Z,1.13
2023-03-28T05:06:09.410Z,1.08
2023-03-28T05:08:35.927Z,1.03
2023-03-28T05:11:02.611Z,0.99
2023-03-28T05:13:29.321Z,0.96
2023-03-28T05:15:55.911Z,0.92
2023-03-28T05:18:22.456Z,0.85
2023-03-28T05:20:48.878Z,0.83
2023-03-28T05:23:15.343Z,0.81
2023-03-28T05:25:41.817Z,0.86
2023-03-28T05:28:08.381Z,0.85
2023-03-28T05:30:34.959Z,0.85
2023-03-28T05:33:01.995Z,0.85
2023-03-28T05:35:28.654Z,0.77
2023-03-28T05:37:55.364Z,0.75
2023-03-28T05:40:22.098Z,0.81
2023-03-28T05:42:48.592Z,0.88
2023-03-28T05:45:15.702Z,0.96
2023-03-28T05:47:42.326Z,0.94
2023-03-28T05:50:10.657Z,0.93
2023-03-28T05:52:37.751Z,1.07
2023-03-28T05:55:04.864Z,1.06
2023-03-28T05:57:31.407Z,1.07
2023-03-28T05:59:57.935Z,1.12
2023-03-28T06:02:25.109Z,1.22
2023-03-28T06:04:55.237Z,1.15
2023-03-28T06:07:35.328Z,1.19
2023-03-28T06:10:08.858Z,1.34
2023-03-28T06:12:35.488Z,1.38
2023-03-28T06:15:02.141Z,1.37
2023-03-28T06:17:28.939Z,1.43
2023-03-28T06:19:55.663Z,1.38
2023-03-28T06:22:22.297Z,1.36
2023-03-28T06:24:48.847Z,1.31
2023-03-28T06:27:15.441Z,1.27
2023-03-28T06:29:42.004Z,1.80
2023-03-28T06:32:08.979Z,2.36
2023-03-28T06:34:35.715Z,3.45
2023-03-28T06:37:02.259Z,3.46
2023-03-28T06:39:28.701Z,3.39
2023-03-28T06:41:55.397Z,3.21
2023-03-28T06:44:21.859Z,2.90
2023-03-28T06:46:49.663Z,2.59
2023-03-28T06:49:16.196Z,2.53
2023-03-28T06:51:42.761Z,2.30
2023-03-28T06:54:09.303Z,2.20
2023-03-28T06:56:35.940Z,2.28
2023-03-28T06:59:02.463Z,2.30
2023-03-28T07:01:29.350Z,2.84
2023-03-28T07:03:59.400Z,3.16
2023-03-28T07:06:27.489Z,3.24
2023-03-28T07:08:55.114Z,3.37
2023-03-28T07:11:21.743Z,5.49
2023-03-28T07:13:49.340Z,6.94
2023-03-28T07:16:16.213Z,7.81
2023-03-28T07:18:43.739Z,6.88
2023-03-28T07:21:15.939Z,5.24
2023-03-28T07:23:43.251Z,5.40
2023-03-28T07:26:11.799Z,5.76
2023-03-28T07:28:38.308Z,5.46
2023-03-28T07:31:05.474Z,4.54
2023-03-28T07:33:37.380Z,4.47
2023-03-28T07:36:10.207Z,4.91
2023-03-28T07:38:36.776Z,5.99
2023-03-28T07:41:04.046Z,6.42
2023-03-28T07:43:30.534Z,6.63
2023-03-28T07:46:06.502Z,6.71
2023-03-28T07:48:35.373Z,8.05
2023-03-28T07:51:02.807Z,8.67
2023-03-28T07:53:29.577Z,9.09
2023-03-28T07:55:56.505Z,9.26
2023-03-28T07:58:23.108Z,9.51
2023-03-28T08:00:50.618Z,8.78
2023-03-28T08:03:17.488Z,9.53
2023-03-28T08:05:49.516Z,10.86
2023-03-28T08:08:16.595Z,10.65
2023-03-28T08:10:45.861Z,8.76
2023-03-28T08:13:12.674Z,8.76
2023-03-28T08:15:39.235Z,10.03
2023-03-28T08:18:05.994Z,10.79
2023-03-28T08:20:32.983Z,11.21
2023-03-28T08:22:59.530Z,11.75
2023-03-28T08:25:26.218Z,9.52
2023-03-28T08:27:52.786Z,8.51
2023-03-28T08:30:19.250Z,7.63
2023-03-28T08:32:48.724Z,7.80
2023-03-28T08:35:15.726Z,8.37
2023-03-28T08:37:42.294Z,9.74
2023-03-28T08:40:14.200Z,8.25
2023-03-28T08:43:04.737Z,8.17
2023-03-28T08:45:53.686Z,7.21
2023-03-28T08:48:37.483Z,8.66
2023-03-28T08:51:19.234Z,11.13
2023-03-28T08:54:12.926Z,12.74
2023-03-28T08:56:49.940Z,10.66
2023-03-28T08:59:23.823Z,9.60
2023-03-28T09:01:50.553Z,9.52
2023-03-28T09:04:27.266Z,10.28
2023-03-28T09:07:00.169Z,12.00
2023-03-28T09:09:53.687Z,11.91
2023-03-28T09:12:35.531Z,11.31
2023-03-28T09:15:11.357Z,10.32
2023-03-28T09:17:55.931Z,8.36
2023-03-28T09:20:29.538Z,8.79
2023-03-28T09:23:08.526Z,10.26
2023-03-28T09:25:46.404Z,12.26
2023-03-28T09:28:47.918Z,10.60
2023-03-28T09:31:17.373Z,10.08
2023-03-28T09:33:47.664Z,9.84
2023-03-28T09:36:21.719Z,9.89
2023-03-28T09:38:52.483Z,10.96
2023-03-28T09:41:27.383Z,13.40
2023-03-28T09:43:58.611Z,13.48
2023-03-28T09:46:44.538Z,12.43
2023-03-28T09:49:19.613Z,10.49
2023-03-28T09:51:46.422Z,10.81
2023-03-28T09:54:13.514Z,11.20
2023-03-28T09:56:42.325Z,11.73
2023-03-28T09:59:29.885Z,11.67
2023-03-28T10:01:58.077Z,10.37
2023-03-28T10:04:28.190Z,9.78
2023-03-28T10:07:16.626Z,8.98
2023-03-28T10:09:54.250Z,8.62
2023-03-28T10:12:24.402Z,9.51
2023-03-28T10:14:50.892Z,10.50
2023-03-28T10:17:27.129Z,11.48
2023-03-28T10:19:59.438Z,12.59
2023-03-28T10:22:37.734Z,12.17
2023-03-28T10:25:05.960Z,9.73
2023-03-28T10:27:40.023Z,9.34
2023-03-28T10:30:21.947Z,9.64
2023-03-28T10:33:07.022Z,11.45
2023-03-28T10:35:33.982Z,11.84
2023-03-28T10:38:04.761Z,12.25
2023-03-28T10:40:32.464Z,11.67
2023-03-28T10:42:59.304Z,11.66
2023-03-28T10:45:38.040Z,13.23
2023-03-28T10:48:17.311Z,13.90
2023-03-28T10:50:46.291Z,15.26
2023-03-28T10:53:37.188Z,13.03
2023-03-28T10:56:41.503Z,11.06
2023-03-28T10:59:49.032Z,10.84
2023-03-28T11:02:20.003Z,9.95
2023-03-28T11:04:56.956Z,9.82
2023-03-28T11:07:45.459Z,12.46
2023-03-28T11:10:34.083Z,12.60
2023-03-28T11:13:13.325Z,13.93
2023-03-28T11:15:54.159Z,13.63
2023-03-28T11:18:51.116Z,12.58
2023-03-28T11:21:33.049Z,13.52
2023-03-28T11:24:20.785Z,13.27
2023-03-28T11:27:15.690Z,14.07
2023-03-28T11:30:16.719Z,13.88
2023-03-28T11:32:57.636Z,13.43
2023-03-28T11:35:31.012Z,13.25
2023-03-28T11:38:04.447Z,13.34
2023-03-28T11:40:47.036Z,13.54
2023-03-28T11:43:16.873Z,12.42
2023-03-28T11:45:52.029Z,12.68
2023-03-28T11:48:23.525Z,12.56
2023-03-28T11:51:32.025Z,12.96
2023-03-28T11:54:05.315Z,14.98
2023-03-28T11:56:51.029Z,13.74
2023-03-28T11:59:42.784Z,14.20
2023-03-28T12:02:23.349Z,14.63
2023-03-28T12:04:57.331Z,15.15
2023-03-28T12:07:36.074Z,14.97
2023-03-28T12:10:11.165Z,14.45
2023-03-28T12:12:44.003Z,14.55
2023-03-28T12:15:20.386Z,14.59
2023-03-28T12:17:50.212Z,14.43
2023-03-28T12:20:43.943Z,13.12
2023-03-28T12:23:23.816Z,13.50
2023-03-28T12:26:00.133Z,12.62
2023-03-28T12:28:45.395Z,11.10
2023-03-28T12:31:38.458Z,10.70
2023-03-28T12:34:12.184Z,11.40
2023-03-28T12:37:01.750Z,11.94
2023-03-28T12:39:43.429Z,12.52
2023-03-28T12:42:13.159Z,12.16
2023-03-28T12:44:46.470Z,11.41
2023-03-28T12:47:17.442Z,10.83
2023-03-28T12:50:15.088Z,9.65
2023-03-28T12:52:43.884Z,9.17
2023-03-28T12:55:26.149Z,8.97
2023-03-28T12:57:54.694Z,8.79
2023-03-28T13:00:24.546Z,8.33
2023-03-28T13:03:16.411Z,8.17
2023-03-28T13:05:55.984Z,8.50
2023-03-28T13:08:47.298Z,8.85
2023-03-28T13:11:25.454Z,9.32
2023-03-28T13:14:16.989Z,10.27
2023-03-28T13:16:58.039Z,9.87
2023-03-28T13:19:46.586Z,9.13
2023-03-28T13:22:28.810Z,8.50
2023-03-28T13:25:25.877Z,8.21
2023-03-28T13:28:12.278Z,7.99
2023-03-28T13:30:46.643Z,8.95
2023-03-28T13:33:26.452Z,9.12
2023-03-28T13:35:58.974Z,9.56
2023-03-28T13:38:28.309Z,10.16
2023-03-28T13:41:09.825Z,10.96
2023-03-28T13:43:48.507Z,11.03
2023-03-28T13:46:29.433Z,10.07
2023-03-28T13:49:16.319Z,9.75
2023-03-28T13:51:58.629Z,9.30
2023-03-28T13:54:28.279Z,8.86
2023-03-28T13:57:01.746Z,8.97
2023-03-28T13:59:39.284Z,9.63
2023-03-28T14:02:42.851Z,9.93
2023-03-28T14:05:27.087Z,9.11
2023-03-28T14:07:55.472Z,9.51
2023-03-28T14:10:31.138Z,10.16
2023-03-28T14:13:01.388Z,10.32
2023-03-28T14:15:30.502Z,10.27
2023-03-28T14:17:58.591Z,10.52
2023-03-28T14:20:26.429Z,11.14
2023-03-28T14:23:00.360Z,11.07
2023-03-28T14:25:28.663Z,11.44
2023-03-28T14:27:56.758Z,11.02
2023-03-28T14:30:39.944Z,10.19
2023-03-28T14:33:14.789Z,10.07
2023-03-28T14:35:48.299Z,10.27
2023-03-28T14:38:28.036Z,10.24
2023-03-28T14:40:55.843Z,10.37
2023-03-28T14:43:31.740Z,9.68
2023-03-28T14:46:03.509Z,9.37
2023-03-28T14:48:30.418Z,9.07
2023-03-28T14:50:59.014Z,9.41
2023-03-28T14:53:27.781Z,9.71
2023-03-28T14:55:58.731Z,9.90
2023-03-28T14:58:27.686Z,10.28
2023-03-28T15:00:58.196Z,10.20
2023-03-28T15:03:35.158Z,9.96
2023-03-28T15:06:02.356Z,9.56
2023-03-28T15:08:35.910Z,9.49
2023-03-28T15:11:15.443Z,9.30
2023-03-28T15:13:51.269Z,8.98
2023-03-28T15:16:23.511Z,8.61
2023-03-28T15:19:23.285Z,8.46
2023-03-28T15:21:55.434Z,8.45
2023-03-28T15:24:22.377Z,8.31
2023-03-28T15:26:51.325Z,8.25
2023-03-28T15:29:19.214Z,8.13
2023-03-28T15:31:46.389Z,8.07
2023-03-28T15:34:24.794Z,8.14
2023-03-28T15:36:57.764Z,8.14
2023-03-28T15:39:27.179Z,7.97
2023-03-28T15:42:20.297Z,7.96
2023-03-28T15:44:58.991Z,8.17
2023-03-28T15:47:29.407Z,8.42
2023-03-28T15:50:03.321Z,8.31
2023-03-28T15:52:31.055Z,8.24
2023-03-28T15:54:58.947Z,8.11
2023-03-28T15:57:27.567Z,8.06
2023-03-28T15:59:56.090Z,7.90
2023-03-28T16:02:22.684Z,7.80
2023-03-28T16:05:06.253Z,7.75
2023-03-28T16:07:45.864Z,7.61
2023-03-28T16:10:14.970Z,7.64
2023-03-28T16:12:41.848Z,7.58
2023-03-28T16:15:08.941Z,7.75
2023-03-28T16:17:36.334Z,7.76
2023-03-28T16:20:12.973Z,7.94
2023-03-28T16:22:39.734Z,8.06
2023-03-28T16:25:06.890Z,8.06
2023-03-28T16:27:35.368Z,8.12
2023-03-28T16:30:04.348Z,7.98
2023-03-28T16:32:31.015Z,7.87
2023-03-28T16:34:57.615Z,7.80
2023-03-28T16:37:24.051Z,7.78
2023-03-28T16:39:50.538Z,7.59
2023-03-28T16:42:18.284Z,7.29
2023-03-28T16:44:44.776Z,7.11
2023-03-28T16:47:11.310Z,6.99
2023-03-28T16:49:37.908Z,6.86
2023-03-28T16:52:05.235Z,6.70
2023-03-28T16:54:31.816Z,6.65
2023-03-28T16:56:58.389Z,6.46
2023-03-28T16:59:24.982Z,6.38
2023-03-28T17:01:52.173Z,6.32
2023-03-28T17:04:18.747Z,6.28
2023-03-28T17:06:45.743Z,6.19
2023-03-28T17:09:12.465Z,6.10
2023-03-28T17:11:40.324Z,6.05
2023-03-28T17:14:06.825Z,5.94
2023-03-28T17:16:33.464Z,5.91
2023-03-28T17:18:59.916Z,5.84
2023-03-28T17:21:26.481Z,5.71
2023-03-28T17:23:53.245Z,5.63
2023-03-28T17:26:19.810Z,5.66
2023-03-28T17:28:46.619Z,5.59
2023-03-28T17:31:16.798Z,5.46
2023-03-28T17:33:44.027Z,5.38
2023-03-28T17:36:22.050Z,5.32
2023-03-28T17:38:50.370Z,5.24
2023-03-28T17:41:17.437Z,5.15
2023-03-28T17:43:44.040Z,5.02
2023-03-28T17:46:11.950Z,4.98
2023-03-28T17:48:39.202Z,4.94
2023-03-28T17:51:06.171Z,4.83
2023-03-28T17:53:33.521Z,4.82
2023-03-28T17:56:00.427Z,4.72
2023-03-28T17:58:27.821Z,4.61
2023-03-28T18:00:54.397Z,4.54
2023-03-28T18:03:21.690Z,4.48
2023-03-28T18:05:50.017Z,4.40
2023-03-28T18:08:16.815Z,4.36
2023-03-28T18:10:43.435Z,4.32
2023-03-28T18:13:09.899Z,4.25
2023-03-28T18:15:36.340Z,4.24
2023-03-28T18:18:02.995Z,4.13
2023-03-28T18:20:29.597Z,4.05
2023-03-28T18:22:56.119Z,4.02
2023-03-28T18:25:23.140Z,3.88
2023-03-28T18:27:49.701Z,3.90
2023-03-28T18:30:16.218Z,3.84
2023-03-28T18:32:43.193Z,3.74
2023-03-28T18:35:10.178Z,3.67
2023-03-28T18:37:36.796Z,3.57
2023-03-28T18:40:07.542Z,3.51
2023-03-28T18:42:35.813Z,3.46
2023-03-28T18:45:03.352Z,3.44
2023-03-28T18:47:29.872Z,3.35
2023-03-28T18:49:56.871Z,3.22
2023-03-28T18:52:23.480Z,3.15
2023-03-28T18:54:51.084Z,3.06
2023-03-28T18:57:17.546Z,3.12
2023-03-28T18:59:44.551Z,3.07
2023-03-28T19:02:14.004Z,2.95
2023-03-28T19:04:40.632Z,2.95
2023-03-28T19:07:08.518Z,2.96
2023-03-28T19:09:35.205Z,2.89
2023-03-28T19:12:01.856Z,2.87
2023-03-28T19:14:28.481Z,2.67
2023-03-28T19:16:55.254Z,2.65
2023-03-28T19:19:23.425Z,2.56
2023-03-28T19:21:51.788Z,2.62
2023-03-28T19:24:21.264Z,2.59
2023-03-28T19:26:48.630Z,2.52
2023-03-28T19:29:15.949Z,2.58
2023-03-28T19:31:42.899Z,2.58
2023-03-28T19:34:20.125Z,2.55
2023-03-28T19:36:47.429Z,2.53
2023-03-28T19:39:14.260Z,2.52
2023-03-28T19:41:41.045Z,2.45
2023-03-28T19:44:07.606Z,2.37
2023-03-28T19:46:36.413Z,2.38
2023-03-28T19:49:06.335Z,2.30
2023-03-28T19:51:33.578Z,2.28
2023-03-28T19:54:00.440Z,2.22
2023-03-28T19:56:28.440Z,2.21
2023-03-28T19:58:54.955Z,2.21
2023-03-28T20:01:22.203Z,2.16
2023-03-28T20:03:52.820Z,2.10
2023-03-28T20:06:21.358Z,1.96
2023-03-28T20:08:48.071Z,1.94
2023-03-28T20:11:15.313Z,1.84
2023-03-28T20:13:41.765Z,1.81
2023-03-28T20:16:10.088Z,1.77
2023-03-28T20:18:37.195Z,1.70
2023-03-28T20:21:06.750Z,1.75
2023-03-28T20:23:34.041Z,1.72
2023-03-28T20:26:01.627Z,1.74
2023-03-28T20:28:32.543Z,1.61
2023-03-28T20:30:59.391Z,1.52
2023-03-28T20:33:26.303Z,1.55
2023-03-28T20:35:54.302Z,1.54
2023-03-28T20:38:21.306Z,1.47
2023-03-28T20:40:47.895Z,1.47
2023-03-28T20:43:19.836Z,1.46
2023-03-28T20:45:54.307Z,1.49
2023-03-28T20:48:25.940Z,1.58
2023-03-28T20:50:55.094Z,1.59
2023-03-28T20:53:22.421Z,1.55
2023-03-28T20:55:50.203Z,1.55
2023-03-28T20:58:16.852Z,1.54
2023-03-28T21:00:43.742Z,1.57
2023-03-28T21:03:11.337Z,1.49
2023-03-28T21:05:42.204Z,1.39
2023-03-28T21:08:08.708Z,1.44
2023-03-28T21:10:36.423Z,1.36
2023-03-28T21:13:02.920Z,1.32
2023-03-28T21:15:30.566Z,1.29
2023-03-28T21:17:58.593Z,1.24
2023-03-28T21:20:25.022Z,1.18
2023-03-28T21:22:51.548Z,1.19
2023-03-28T21:25:18.510Z,1.19
2023-03-28T21:27:45.054Z,1.18
2023-03-28T21:30:13.779Z,1.16
2023-03-28T21:32:41.000Z,1.13
2023-03-28T21:35:07.959Z,1.10
2023-03-28T21:37:34.536Z,1.07
2023-03-28T21:40:01.169Z,1.00
2023-03-28T21:42:27.891Z,0.90
2023-03-28T21:44:54.355Z,0.84
2023-03-28T21:47:21.013Z,0.82
2023-03-28T21:49:49.431Z,0.84
2023-03-28T21:52:16.289Z,0.75
2023-03-28T21:54:42.729Z,0.77
2023-03-28T21:57:09.807Z,0.74
2023-03-28T21:59:36.492Z,0.73
2023-03-28T22:02:03.137Z,0.70
2023-03-28T22:04:29.652Z,0.61
2023-03-28T22:06:56.584Z,0.65
2023-03-28T22:09:23.161Z,0.64
2023-03-28T22:11:49.668Z,0.64
2023-03-28T22:14:16.231Z,0.66
2023-03-28T22:16:42.774Z,0.75
2023-03-28T22:19:09.728Z,0.69
2023-03-28T22:21:37.183Z,0.69
2023-03-28T22:24:06.600Z,0.75
2023-03-28T22:26:33.370Z,0.83
2023-03-28T22:28:59.902Z,0.88
2023-03-28T22:31:27.115Z,0.88
2023-03-28T22:33:54.297Z,0.86
2023-03-28T22:36:21.036Z,0.79
2023-03-28T22:38:47.555Z,0.80
2023-03-28T22:41:14.253Z,0.83
2023-03-28T22:43:43.429Z,0.84
2023-03-28T22:46:12.601Z,0.83
2023-03-28T22:48:39.848Z,0.80
2023-03-28T22:51:11.698Z,0.79
2023-03-28T22:53:39.801Z,0.86
2023-03-28T22:56:06.852Z,0.98
2023-03-28T22:58:34.014Z,1.00
2023-03-28T23:01:01.086Z,0.98
2023-03-28T23:03:28.207Z,0.98
2023-03-28T23:05:55.095Z,1.00
2023-03-28T23:08:22.225Z,1.00
2023-03-28T23:10:48.929Z,0.96
2023-03-28T23:13:16.353Z,0.90
2023-03-28T23:15:43.696Z,0.90
2023-03-28T23:18:10.884Z,0.94
2023-03-28T23:20:38.245Z,0.97
2023-03-28T23:23:04.822Z,1.06
2023-03-28T23:25:31.352Z,1.00
2023-03-28T23:27:57.945Z,1.08
2023-03-28T23:30:24.452Z,1.03
2023-03-28T23:32:51.201Z,1.17
2023-03-28T23:35:18.062Z,1.20
2023-03-28T23:37:44.809Z,1.24
2023-03-28T23:40:14.818Z,1.46
2023-03-28T23:42:43.738Z,1.50
2023-03-28T23:45:11.794Z,1.32
2023-03-28T23:47:38.689Z,1.27
2023-03-28T23:50:06.618Z,1.42
2023-03-28T23:52:33.390Z,1.51
2023-03-28T23:55:00.134Z,1.48
2023-03-28T23:57:28.542Z,1.53
2023-03-28T23:59:56.400Z,1.45
